Wednesday, August 20, 2014, 4:47 AM EDT

KNHK, Nas Patuxent River Md

Location: Patuxent River, MD, United States Lat: 38.3
Local Time: 4:47 AM EDT ( 8:47 GMT) Lon: -76.4
Time Zone: US/Eastern Elev: 39 ft

Show me the last for .
Show Decoded

2014-08-20 03:52 METAR KNHK 200752Z AUTO 00000KT 10SM CLR 18/17 A2992 RMK AO2 SLP131 T01830172 =
2014-08-20 02:52 METAR KNHK 200652Z AUTO 11004KT 10SM CLR 20/18 A2991 RMK AO2 SLP127 T02000178 =
2014-08-20 01:52 METAR KNHK 200552Z AUTO 12004KT 10SM CLR 22/19 A2991 RMK AO2 SLP127 T02220189
                 10250 20217 58001 =
2014-08-20 00:52 METAR KNHK 200452Z AUTO 12007KT 10SM CLR 23/18 A2991 RMK AO2 SLP128 T02280183
                 402720211 =
2014-08-19 22:52 METAR KNHK 200252Z 12007KT 10SM FEW110 23/17 A2991 RMK AO2 SLP129 T02330167
                 51017 =
2014-08-19 21:52 METAR KNHK 200152Z 11009KT 10SM FEW022 SCT110 24/18 A2991 RMK AO2 SLP128
                 T02390178 =
2014-08-19 20:52 METAR KNHK 200052Z 09008KT 10SM FEW030 FEW110 SCT250 24/20 A2987 RMK AO2 SLP115
                 T02440200 =
2014-08-19 19:52 METAR KNHK 192352Z 11007KT 10SM FEW030 SCT110 SCT250 25/21 A2986 RMK AO2 SLP112
                 60000 T02500206 10267 20250 52006 =
2014-08-19 18:52 METAR KNHK 192252Z 12005KT 10SM FEW030 SCT050 SCT120 BKN250 26/21 A2985 RMK AO2
                 SLP108 T02560211 =
2014-08-19 17:52 METAR KNHK 192152Z 13004KT 10SM SCT030 BKN039 BKN120 BKN250 26/21 A2985 RMK AO2
                 SLP110 T02560211 =
2014-08-19 16:52 METAR KNHK 192052Z 11003KT 10SM FEW025 SCT050 BKN120 BKN250 26/21 A2984 RMK AO2
                 SLP106 60000 T02610206 56004 =
2014-08-19 15:52 METAR KNHK 191952Z 11004KT 10SM FEW039 BKN055 BKN120 26/21 A2985 RMK AO2 SLP107
                 T02610211 =
2014-08-19 14:52 METAR KNHK 191852Z 13005KT 10SM FEW037 BKN050 BKN110 26/22 A2985 RMK AO2
                 RAB32E40 SLP108 P0000 T02610217 =
2014-08-19 13:52 METAR KNHK 191752Z 11005KT 10SM FEW018 BKN050 BKN110 26/21 A2986 RMK AO2 SLP110
                 60000 T02610211 10272 20233 50001 =
2014-08-19 12:52 METAR KNHK 191652Z 10008KT 10SM FEW016 BKN060 BKN110 27/22 A2986 RMK AO2 SLP111
                 T02670217 =
2014-08-19 11:52 METAR KNHK 191552Z 11010KT 10SM FEW014 FEW060 SCT110 27/22 A2985 RMK AO2 SLP110
                 T02670217 =
2014-08-19 11:36 METAR KNHK 191536Z 11009KT 10SM FEW015 FEW035 BKN110 24/22 A2985 RMK AO2
                 T02440217 =
2014-08-19 11:08 METAR KNHK 191508Z 08011KT 10SM BKN013 BKN022 OVC028 24/22 A2986 RMK AO2
                 T02440217 =
2014-08-19 10:52 METAR KNHK 191452Z 08012G19KT 8SM FEW008 BKN013 OVC020 24/21 A2985 RMK AO2 RAE51
                 SLP109 P0000 60000 T02390211 53013 =
2014-08-19 10:12 METAR KNHK 191412Z 06008KT 7SM -RA SCT008 BKN011 OVC021 24/22 A2984 RMK AO2
                 P0000 T02440222 =
2014-08-19 09:52 METAR KNHK 191352Z 07007KT 7SM -RA BKN008 OVC016 24/22 A2984 RMK AO2 RAB35
                 SLP104 P0000 T02390217 =
2014-08-19 09:35 METAR KNHK 191335Z 07008KT 7SM -RA OVC007 24/22 A2983 RMK AO2 RAB35 P0000
                 T02390222 =
2014-08-19 08:52 METAR KNHK 191252Z 08006KT 7SM BKN006 OVC032 23/22 A2983 RMK AO2 SLP100
                 T02330217 =
2014-08-19 08:42 METAR KNHK 191242Z 07008KT 7SM BKN006 23/22 A2982 RMK AO2 T02330217 =
2014-08-19 08:34 METAR KNHK 191234Z COR 07008KT 8SM BKN006 BKN150 23/22 A2982 RMK AO2 T02330217 =
2014-08-19 07:52 METAR KNHK 191152Z 09005KT 7SM FEW005 FEW030 FEW100 FEW150 23/22 A2982 RMK AO2
                 SLP097 T02330217 10233 20211 53009 =
2014-08-19 07:28 METAR KNHK 191128Z COR 05003KT 5SM BR FEW005 FEW015 SCT150 SCT250 23/22 A2981
                 RMK AO2 T02280222 =
2014-08-19 06:52 METAR KNHK 191052Z 05007KT 8SM FEW015 FEW100 FEW250 22/21 A2979 RMK AO2 SLP089
                 T02220211 =
2014-08-19 06:10 METAR KNHK 191010Z 04004KT 7SM SCT012 SCT030 BKN100 BKN250 22/21 A2980 RMK AO2
                 T02220211 =
2014-08-19 05:26 METAR KNHK 190926Z 04004KT 8SM SCT012 SCT250 22/21 A2979 RMK AO2 T02170206 =
2014-08-19 04:52 METAR KNHK 190852Z 05003KT 7SM BKN012 22/21 A2979 RMK AO2 SLP087 T02220211 56007
                 =

Support USWX by starting your Amazon purchase here.